sensor_id;sensor_type;location;lat;lon;timestamp;pressure;altitude;pressure_sealevel;temperature;humidity
63287;BME280;49410;55.708;37.522;2023-02-18T00:02:02;99483.16;;;-8.10;nan
63287;BME280;49410;55.708;37.522;2023-02-18T00:04:28;99463.91;;;-8.15;nan
63287;BME280;49410;55.708;37.522;2023-02-18T00:06:54;99495.31;;;-8.04;nan
63287;BME280;49410;55.708;37.522;2023-02-18T00:09:19;99491.84;;;-8.06;nan
63287;BME280;49410;55.708;37.522;2023-02-18T00:11:45;99482.22;;;-8.09;nan
63287;BME280;49410;55.708;37.522;2023-02-18T00:14:14;99476.81;;;-8.06;nan
63287;BME280;49410;55.708;37.522;2023-02-18T00:16:40;99481.25;;;-8.06;nan
63287;BME280;49410;55.708;37.522;2023-02-18T00:19:09;99476.91;;;-8.09;nan
63287;BME280;49410;55.708;37.522;2023-02-18T00:21:35;99472.59;;;-8.12;nan
63287;BME280;49410;55.708;37.522;2023-02-18T00:24:02;99463.75;;;-8.12;nan
63287;BME280;49410;55.708;37.522;2023-02-18T00:26:28;99472.34;;;-8.05;nan
63287;BME280;49410;55.708;37.522;2023-02-18T00:28:53;99476.91;;;-8.09;nan
63287;BME280;49410;55.708;37.522;2023-02-18T00:31:28;99460.06;;;-8.08;nan
63287;BME280;49410;55.708;37.522;2023-02-18T00:33:56;99468.72;;;-8.03;nan
63287;BME280;49410;55.708;37.522;2023-02-18T00:36:22;99424.38;;;-8.23;nan
63287;BME280;49410;55.708;37.522;2023-02-18T00:38:50;99451.22;;;-8.08;nan
63287;BME280;49410;55.708;37.522;2023-02-18T00:41:17;99456.50;;;-8.07;nan
63287;BME280;49410;55.708;37.522;2023-02-18T00:43:42;99463.38;;;-8.01;nan
63287;BME280;49410;55.708;37.522;2023-02-18T00:46:08;99459.09;;;-8.05;nan
63287;BME280;49410;55.708;37.522;2023-02-18T00:48:34;99449.47;;;-8.08;nan
63287;BME280;49410;55.708;37.522;2023-02-18T00:51:00;99439.19;;;-8.17;nan
63287;BME280;49410;55.708;37.522;2023-02-18T00:53:29;99455.69;;;-8.09;nan
63287;BME280;49410;55.708;37.522;2023-02-18T00:55:55;99425.00;;;-8.16;nan
63287;BME280;49410;55.708;37.522;2023-02-18T00:58:21;99442.53;;;-8.12;nan
63287;BME280;49410;55.708;37.522;2023-02-18T01:00:47;99436.94;;;-8.04;nan
63287;BME280;49410;55.708;37.522;2023-02-18T01:03:13;99433.06;;;-8.19;nan
63287;BME280;49410;55.708;37.522;2023-02-18T01:05:39;99419.88;;;-8.21;nan
63287;BME280;49410;55.708;37.522;2023-02-18T01:08:06;99404.91;;;-8.23;nan
63287;BME280;49410;55.708;37.522;2023-02-18T01:10:32;99414.75;;;-8.25;nan
63287;BME280;49410;55.708;37.522;2023-02-18T01:12:58;99411.09;;;-8.23;nan
63287;BME280;49410;55.708;37.522;2023-02-18T01:15:24;99394.47;;;-8.28;nan
63287;BME280;49410;55.708;37.522;2023-02-18T01:17:49;99385.03;;;-8.35;nan
63287;BME280;49410;55.708;37.522;2023-02-18T01:20:16;99359.75;;;-8.46;nan
63287;BME280;49410;55.708;37.522;2023-02-18T01:22:42;99392.63;;;-8.26;nan
63287;BME280;49410;55.708;37.522;2023-02-18T01:25:08;99381.72;;;-8.42;nan
63287;BME280;49410;55.708;37.522;2023-02-18T01:27:34;99378.47;;;-8.49;nan
63287;BME280;49410;55.708;37.522;2023-02-18T01:30:00;99366.88;;;-8.46;nan
63287;BME280;49410;55.708;37.522;2023-02-18T01:32:26;99355.19;;;-8.64;nan
63287;BME280;49410;55.708;37.522;2023-02-18T01:34:51;99353.88;;;-8.76;nan
63287;BME280;49410;55.708;37.522;2023-02-18T01:37:17;99351.16;;;-8.75;nan
63287;BME280;49410;55.708;37.522;2023-02-18T01:39:42;99353.47;;;-8.65;nan
63287;BME280;49410;55.708;37.522;2023-02-18T01:42:20;99341.69;;;-8.82;nan
63287;BME280;49410;55.708;37.522;2023-02-18T01:44:47;99338.22;;;-8.84;nan
63287;BME280;49410;55.708;37.522;2023-02-18T01:47:13;99322.84;;;-8.98;nan
63287;BME280;49410;55.708;37.522;2023-02-18T01:49:39;99339.78;;;-8.78;nan
63287;BME280;49410;55.708;37.522;2023-02-18T01:52:09;99319.09;;;-8.92;nan
63287;BME280;49410;55.708;37.522;2023-02-18T01:54:40;99315.63;;;-8.94;nan
63287;BME280;49410;55.708;37.522;2023-02-18T01:57:09;99285.88;;;-9.26;nan
63287;BME280;49410;55.708;37.522;2023-02-18T01:59:39;99318.91;;;-9.11;nan
63287;BME280;49410;55.708;37.522;2023-02-18T02:02:10;99331.66;;;-8.97;nan
63287;BME280;49410;55.708;37.522;2023-02-18T02:04:37;99329.91;;;-8.98;nan
63287;BME280;49410;55.708;37.522;2023-02-18T02:07:03;99310.13;;;-9.13;nan
63287;BME280;49410;55.708;37.522;2023-02-18T02:09:31;99311.28;;;-9.21;nan
63287;BME280;49410;55.708;37.522;2023-02-18T02:12:09;99318.63;;;-9.03;nan
63287;BME280;49410;55.708;37.522;2023-02-18T02:15:03;99312.09;;;-8.95;nan
63287;BME280;49410;55.708;37.522;2023-02-18T02:20:36;99305.59;;;-8.86;nan
63287;BME280;49410;55.708;37.522;2023-02-18T02:23:17;99304.59;;;-8.82;nan
63287;BME280;49410;55.708;37.522;2023-02-18T02:37:17;99311.03;;;-8.65;nan
63287;BME280;49410;55.708;37.522;2023-02-18T02:51:06;99284.63;;;-8.68;nan
63287;BME280;49410;55.708;37.522;2023-02-18T02:53:36;99267.56;;;-8.85;nan
63287;BME280;49410;55.708;37.522;2023-02-18T02:56:04;99263.19;;;-8.86;nan
63287;BME280;49410;55.708;37.522;2023-02-18T02:58:29;99257.03;;;-8.86;nan
63287;BME280;49410;55.708;37.522;2023-02-18T03:01:14;99270.78;;;-8.77;nan
63287;BME280;49410;55.708;37.522;2023-02-18T03:04:18;99247.81;;;-9.00;nan
63287;BME280;49410;55.708;37.522;2023-02-18T03:12:46;99247.91;;;-9.03;nan
63287;BME280;49410;55.708;37.522;2023-02-18T03:15:35;99249.81;;;-9.07;nan
63287;BME280;49410;55.708;37.522;2023-02-18T03:18:07;99241.50;;;-8.96;nan
63287;BME280;49410;55.708;37.522;2023-02-18T03:20:36;99222.00;;;-8.95;nan
63287;BME280;49410;55.708;37.522;2023-02-18T03:23:06;99230.13;;;-8.99;nan
63287;BME280;49410;55.708;37.522;2023-02-18T03:25:34;99221.25;;;-8.98;nan
63287;BME280;49410;55.708;37.522;2023-02-18T03:28:05;99219.50;;;-8.99;nan
63287;BME280;49410;55.708;37.522;2023-02-18T03:33:04;99208.47;;;-9.11;nan
63287;BME280;49410;55.708;37.522;2023-02-18T03:35:31;99182.56;;;-9.26;nan
63287;BME280;49410;55.708;37.522;2023-02-18T03:38:28;99166.38;;;-9.42;nan
63287;BME280;49410;55.708;37.522;2023-02-18T03:40:56;99193.69;;;-9.16;nan
63287;BME280;49410;55.708;37.522;2023-02-18T03:43:22;99181.34;;;-9.17;nan
63287;BME280;49410;55.708;37.522;2023-02-18T03:45:48;99191.41;;;-9.03;nan
63287;BME280;49410;55.708;37.522;2023-02-18T03:48:13;99170.56;;;-9.13;nan
63287;BME280;49410;55.708;37.522;2023-02-18T03:50:39;99179.38;;;-9.12;nan
63287;BME280;49410;55.708;37.522;2023-02-18T03:53:04;99180.25;;;-9.12;nan
63287;BME280;49410;55.708;37.522;2023-02-18T03:55:30;99180.13;;;-9.09;nan
63287;BME280;49410;55.708;37.522;2023-02-18T03:57:55;99166.56;;;-9.23;nan
63287;BME280;49410;55.708;37.522;2023-02-18T04:00:21;99169.47;;;-9.31;nan
63287;BME280;49410;55.708;37.522;2023-02-18T04:02:46;99163.53;;;-9.38;nan
63287;BME280;49410;55.708;37.522;2023-02-18T04:05:12;99173.78;;;-9.28;nan
63287;BME280;49410;55.708;37.522;2023-02-18T04:07:38;99156.97;;;-9.27;nan
63287;BME280;49410;55.708;37.522;2023-02-18T04:10:05;99148.00;;;-9.23;nan
63287;BME280;49410;55.708;37.522;2023-02-18T04:12:30;99152.50;;;-9.25;nan
63287;BME280;49410;55.708;37.522;2023-02-18T04:14:56;99146.28;;;-9.24;nan
63287;BME280;49410;55.708;37.522;2023-02-18T04:17:21;99147.69;;;-9.15;nan
63287;BME280;49410;55.708;37.522;2023-02-18T04:19:47;99126.09;;;-9.28;nan
63287;BME280;49410;55.708;37.522;2023-02-18T04:22:12;99128.66;;;-9.25;nan
63287;BME280;49410;55.708;37.522;2023-02-18T04:24:38;99103.06;;;-9.48;nan
63287;BME280;49410;55.708;37.522;2023-02-18T04:27:03;99118.41;;;-9.34;nan
63287;BME280;49410;55.708;37.522;2023-02-18T04:29:29;99110.41;;;-9.33;nan
63287;BME280;49410;55.708;37.522;2023-02-18T04:31:54;99110.28;;;-9.30;nan
63287;BME280;49410;55.708;37.522;2023-02-18T04:34:20;99118.88;;;-9.23;nan
63287;BME280;49410;55.708;37.522;2023-02-18T04:36:45;99115.34;;;-9.24;nan
63287;BME280;49410;55.708;37.522;2023-02-18T04:39:11;99118.91;;;-9.25;nan
63287;BME280;49410;55.708;37.522;2023-02-18T04:41:37;99103.38;;;-9.34;nan
63287;BME280;49410;55.708;37.522;2023-02-18T04:44:02;99112.31;;;-9.14;nan
63287;BME280;49410;55.708;37.522;2023-02-18T04:46:28;99090.75;;;-9.27;nan
63287;BME280;49410;55.708;37.522;2023-02-18T04:48:53;99105.06;;;-9.09;nan
63287;BME280;49410;55.708;37.522;2023-02-18T04:51:19;99096.56;;;-9.17;nan
63287;BME280;49410;55.708;37.522;2023-02-18T04:53:44;99100.69;;;-9.10;nan
63287;BME280;49410;55.708;37.522;2023-02-18T04:56:10;99102.13;;;-9.01;nan
63287;BME280;49410;55.708;37.522;2023-02-18T04:58:36;99111.84;;;-8.80;nan
63287;BME280;49410;55.708;37.522;2023-02-18T05:01:02;99096.88;;;-8.81;nan
63287;BME280;49410;55.708;37.522;2023-02-18T05:03:29;99104.31;;;-8.68;nan
63287;BME280;49410;55.708;37.522;2023-02-18T05:05:54;99100.88;;;-8.70;nan
63287;BME280;49410;55.708;37.522;2023-02-18T05:08:20;99080.22;;;-8.84;nan
63287;BME280;49410;55.708;37.522;2023-02-18T05:10:46;99089.50;;;-8.74;nan
63287;BME280;49410;55.708;37.522;2023-02-18T05:13:11;99069.06;;;-8.70;nan
63287;BME280;49410;55.708;37.522;2023-02-18T05:15:37;99096.50;;;-8.71;nan
63287;BME280;49410;55.708;37.522;2023-02-18T05:18:03;99080.25;;;-8.64;nan
63287;BME280;49410;55.708;37.522;2023-02-18T05:20:28;99066.88;;;-8.61;nan
63287;BME280;49410;55.708;37.522;2023-02-18T05:22:54;99059.00;;;-8.62;nan
63287;BME280;49410;55.708;37.522;2023-02-18T05:25:19;99048.97;;;-8.76;nan
63287;BME280;49410;55.708;37.522;2023-02-18T05:27:45;99068.22;;;-8.50;nan
63287;BME280;49410;55.708;37.522;2023-02-18T05:30:10;99062.06;;;-8.51;nan
63287;BME280;49410;55.708;37.522;2023-02-18T05:32:36;99060.25;;;-8.50;nan
63287;BME280;49410;55.708;37.522;2023-02-18T05:35:01;99064.81;;;-8.33;nan
63287;BME280;49410;55.708;37.522;2023-02-18T05:37:27;99036.59;;;-8.55;nan
63287;BME280;49410;55.708;37.522;2023-02-18T05:39:52;99043.78;;;-8.38;nan
63287;BME280;49410;55.708;37.522;2023-02-18T05:42:18;99036.38;;;-8.50;nan
63287;BME280;49410;55.708;37.522;2023-02-18T05:44:43;99024.50;;;-8.42;nan
63287;BME280;49410;55.708;37.522;2023-02-18T05:47:11;99014.53;;;-8.55;nan
63287;BME280;49410;55.708;37.522;2023-02-18T05:49:38;99008.13;;;-8.51;nan
63287;BME280;49410;55.708;37.522;2023-02-18T05:52:04;98999.75;;;-8.42;nan
63287;BME280;49410;55.708;37.522;2023-02-18T05:54:30;99013.34;;;-8.29;nan
63287;BME280;49410;55.708;37.522;2023-02-18T05:56:56;99000.91;;;-8.48;nan
63287;BME280;49410;55.708;37.522;2023-02-18T05:59:22;99007.13;;;-8.49;nan
63287;BME280;49410;55.708;37.522;2023-02-18T06:01:47;99002.41;;;-8.42;nan
63287;BME280;49410;55.708;37.522;2023-02-18T06:04:13;99009.88;;;-8.50;nan
63287;BME280;49410;55.708;37.522;2023-02-18T06:06:39;99002.28;;;-8.39;nan
63287;BME280;49410;55.708;37.522;2023-02-18T06:09:05;98986.06;;;-8.52;nan
63287;BME280;49410;55.708;37.522;2023-02-18T06:11:30;98997.88;;;-8.40;nan
63287;BME280;49410;55.708;37.522;2023-02-18T06:13:56;98976.19;;;-8.48;nan
63287;BME280;49410;55.708;37.522;2023-02-18T06:16:22;98963.94;;;-8.51;nan
63287;BME280;49410;55.708;37.522;2023-02-18T06:18:47;98990.31;;;-8.29;nan
63287;BME280;49410;55.708;37.522;2023-02-18T06:21:13;98984.69;;;-8.21;nan
63287;BME280;49410;55.708;37.522;2023-02-18T06:23:38;98965.06;;;-8.37;nan
63287;BME280;49410;55.708;37.522;2023-02-18T06:26:05;98964.50;;;-8.25;nan
63287;BME280;49410;55.708;37.522;2023-02-18T06:28:31;98955.13;;;-8.32;nan
63287;BME280;49410;55.708;37.522;2023-02-18T06:30:56;98957.97;;;-8.18;nan
63287;BME280;49410;55.708;37.522;2023-02-18T06:33:22;98964.47;;;-8.04;nan
63287;BME280;49410;55.708;37.522;2023-02-18T06:36:03;98957.63;;;-8.10;nan
63287;BME280;49410;55.708;37.522;2023-02-18T06:38:32;98948.25;;;-8.17;nan
63287;BME280;49410;55.708;37.522;2023-02-18T06:40:57;98961.81;;;-8.04;nan
63287;BME280;49410;55.708;37.522;2023-02-18T06:43:23;98943.28;;;-8.25;nan
63287;BME280;49410;55.708;37.522;2023-02-18T06:45:48;98952.63;;;-7.97;nan
63287;BME280;49410;55.708;37.522;2023-02-18T06:48:14;98942.38;;;-8.05;nan
63287;BME280;49410;55.708;37.522;2023-02-18T06:50:41;98924.09;;;-7.92;nan
63287;BME280;49410;55.708;37.522;2023-02-18T06:53:06;98942.81;;;-7.76;nan
63287;BME280;49410;55.708;37.522;2023-02-18T06:55:32;98952.28;;;-7.89;nan
63287;BME280;49410;55.708;37.522;2023-02-18T06:57:57;98923.72;;;-7.84;nan
63287;BME280;49410;55.708;37.522;2023-02-18T07:00:23;98913.47;;;-7.92;nan
63287;BME280;49410;55.708;37.522;2023-02-18T07:02:49;98912.72;;;-7.76;nan
63287;BME280;49410;55.708;37.522;2023-02-18T07:05:14;98917.53;;;-7.66;nan
63287;BME280;49410;55.708;37.522;2023-02-18T07:07:40;98900.56;;;-7.63;nan
63287;BME280;49410;55.708;37.522;2023-02-18T07:10:06;98903.44;;;-7.49;nan
63287;BME280;49410;55.708;37.522;2023-02-18T07:12:32;98899.72;;;-7.63;nan
63287;BME280;49410;55.708;37.522;2023-02-18T07:14:58;98897.31;;;-7.51;nan
63287;BME280;49410;55.708;37.522;2023-02-18T07:17:24;98910.84;;;-7.38;nan
63287;BME280;49410;55.708;37.522;2023-02-18T07:19:49;98893.19;;;-7.39;nan
63287;BME280;49410;55.708;37.522;2023-02-18T07:22:15;98876.22;;;-7.36;nan
63287;BME280;49410;55.708;37.522;2023-02-18T07:24:40;98885.06;;;-7.36;nan
63287;BME280;49410;55.708;37.522;2023-02-18T07:27:06;98880.31;;;-7.29;nan
63287;BME280;49410;55.708;37.522;2023-02-18T07:29:32;98861.63;;;-7.45;nan
63287;BME280;49410;55.708;37.522;2023-02-18T07:31:57;98873.28;;;-7.30;nan
63287;BME280;49410;55.708;37.522;2023-02-18T07:34:23;98865.78;;;-7.22;nan
63287;BME280;49410;55.708;37.522;2023-02-18T07:36:48;98849.59;;;-7.35;nan
63287;BME280;49410;55.708;37.522;2023-02-18T07:39:13;98864.16;;;-7.24;nan
63287;BME280;49410;55.708;37.522;2023-02-18T07:41:39;98845.59;;;-7.26;nan
63287;BME280;49410;55.708;37.522;2023-02-18T07:44:04;98846.84;;;-7.33;nan
63287;BME280;49410;55.708;37.522;2023-02-18T07:46:30;98837.09;;;-7.32;nan
63287;BME280;49410;55.708;37.522;2023-02-18T07:48:56;98846.38;;;-7.24;nan
63287;BME280;49410;55.708;37.522;2023-02-18T07:51:22;98838.03;;;-7.16;nan
63287;BME280;49410;55.708;37.522;2023-02-18T07:53:47;98837.63;;;-7.08;nan
63287;BME280;49410;55.708;37.522;2023-02-18T07:56:13;98848.63;;;-6.98;nan
63287;BME280;49410;55.708;37.522;2023-02-18T07:58:38;98832.28;;;-6.91;nan
63287;BME280;49410;55.708;37.522;2023-02-18T08:01:09;98825.09;;;-6.89;nan
63287;BME280;49410;55.708;37.522;2023-02-18T08:03:36;98813.88;;;-6.78;nan
63287;BME280;49410;55.708;37.522;2023-02-18T08:06:02;98816.91;;;-6.68;nan
63287;BME280;49410;55.708;37.522;2023-02-18T08:08:30;98832.44;;;-6.60;nan
63287;BME280;49410;55.708;37.522;2023-02-18T08:10:59;98776.31;;;-6.88;nan
63287;BME280;49410;55.708;37.522;2023-02-18T08:13:27;98815.97;;;-6.51;nan
63287;BME280;49410;55.708;37.522;2023-02-18T08:15:54;98795.53;;;-6.66;nan
63287;BME280;49410;55.708;37.522;2023-02-18T08:18:22;98798.28;;;-6.68;nan
63287;BME280;49410;55.708;37.522;2023-02-18T08:20:48;98801.47;;;-6.77;nan
63287;BME280;49410;55.708;37.522;2023-02-18T08:23:15;98783.00;;;-6.80;nan
63287;BME280;49410;55.708;37.522;2023-02-18T08:25:47;98800.97;;;-6.68;nan
63287;BME280;49410;55.708;37.522;2023-02-18T08:28:13;98778.28;;;-6.75;nan
63287;BME280;49410;55.708;37.522;2023-02-18T08:30:46;98769.22;;;-6.55;nan
63287;BME280;49410;55.708;37.522;2023-02-18T08:33:11;98790.41;;;-6.37;nan
63287;BME280;49410;55.708;37.522;2023-02-18T08:35:37;98772.22;;;-6.29;nan
63287;BME280;49410;55.708;37.522;2023-02-18T08:38:03;98780.66;;;-6.21;nan
63287;BME280;49410;55.708;37.522;2023-02-18T08:40:28;98771.13;;;-6.25;nan
63287;BME280;49410;55.708;37.522;2023-02-18T08:42:53;98755.50;;;-6.31;nan
63287;BME280;49410;55.708;37.522;2023-02-18T08:45:19;98751.00;;;-6.15;nan
63287;BME280;49410;55.708;37.522;2023-02-18T08:47:44;98741.38;;;-6.01;nan
63287;BME280;49410;55.708;37.522;2023-02-18T08:50:10;98755.19;;;-5.64;nan
63287;BME280;49410;55.708;37.522;2023-02-18T08:52:36;98744.72;;;-5.83;nan
63287;BME280;49410;55.708;37.522;2023-02-18T08:55:03;98744.53;;;-5.64;nan
63287;BME280;49410;55.708;37.522;2023-02-18T08:57:29;98747.41;;;-5.53;nan
63287;BME280;49410;55.708;37.522;2023-02-18T08:59:54;98740.41;;;-5.39;nan
63287;BME280;49410;55.708;37.522;2023-02-18T09:02:20;98722.38;;;-5.65;nan
63287;BME280;49410;55.708;37.522;2023-02-18T09:04:45;98718.38;;;-5.57;nan
63287;BME280;49410;55.708;37.522;2023-02-18T09:07:11;98718.09;;;-5.53;nan
63287;BME280;49410;55.708;37.522;2023-02-18T09:09:36;98712.28;;;-5.59;nan
63287;BME280;49410;55.708;37.522;2023-02-18T09:12:02;98693.06;;;-5.65;nan
63287;BME280;49410;55.708;37.522;2023-02-18T09:14:28;98710.38;;;-5.57;nan
63287;BME280;49410;55.708;37.522;2023-02-18T09:16:56;98711.44;;;-5.60;nan
63287;BME280;49410;55.708;37.522;2023-02-18T09:19:22;98700.00;;;-5.62;nan
63287;BME280;49410;55.708;37.522;2023-02-18T09:21:47;98693.16;;;-5.52;nan
63287;BME280;49410;55.708;37.522;2023-02-18T09:24:13;98689.34;;;-5.48;nan
63287;BME280;49410;55.708;37.522;2023-02-18T09:26:39;98678.69;;;-5.48;nan
63287;BME280;49410;55.708;37.522;2023-02-18T09:29:05;98678.81;;;-5.35;nan
63287;BME280;49410;55.708;37.522;2023-02-18T09:31:30;98665.75;;;-5.25;nan
63287;BME280;49410;55.708;37.522;2023-02-18T09:33:58;98669.69;;;-5.16;nan
63287;BME280;49410;55.708;37.522;2023-02-18T09:36:25;98665.13;;;-5.14;nan
63287;BME280;49410;55.708;37.522;2023-02-18T09:38:51;98650.78;;;-5.13;nan
63287;BME280;49410;55.708;37.522;2023-02-18T09:43:48;98648.59;;;-4.92;nan
63287;BME280;49410;55.708;37.522;2023-02-18T09:48:45;98626.44;;;-5.07;nan
63287;BME280;49410;55.708;37.522;2023-02-18T09:51:13;98616.41;;;-4.89;nan
63287;BME280;49410;55.708;37.522;2023-02-18T09:53:41;98633.44;;;-4.91;nan
63287;BME280;49410;55.708;37.522;2023-02-18T09:56:10;98623.06;;;-4.96;nan
63287;BME280;49410;55.708;37.522;2023-02-18T09:58:36;98606.44;;;-5.14;nan
63287;BME280;49410;55.708;37.522;2023-02-18T10:03:35;98588.75;;;-5.44;nan
63287;BME280;49410;55.708;37.522;2023-02-18T10:06:25;98602.19;;;-5.31;nan
63287;BME280;49410;55.708;37.522;2023-02-18T10:08:52;98554.38;;;-5.34;nan
63287;BME280;49410;55.708;37.522;2023-02-18T10:11:34;98596.44;;;-5.25;nan
63287;BME280;49410;55.708;37.522;2023-02-18T10:14:02;98588.91;;;-5.04;nan
63287;BME280;49410;55.708;37.522;2023-02-18T10:16:28;98581.69;;;-5.16;nan
63287;BME280;49410;55.708;37.522;2023-02-18T10:18:58;98579.69;;;-5.12;nan
63287;BME280;49410;55.708;37.522;2023-02-18T10:21:27;98555.78;;;-5.14;nan
63287;BME280;49410;55.708;37.522;2023-02-18T10:24:09;98554.81;;;-5.13;nan
63287;BME280;49410;55.708;37.522;2023-02-18T10:26:40;98560.84;;;-5.24;nan
63287;BME280;49410;55.708;37.522;2023-02-18T10:29:24;98547.22;;;-5.34;nan
63287;BME280;49410;55.708;37.522;2023-02-18T10:31:55;98532.09;;;-5.33;nan
63287;BME280;49410;55.708;37.522;2023-02-18T10:34:35;98548.34;;;-5.09;nan
63287;BME280;49410;55.708;37.522;2023-02-18T10:42:35;98528.38;;;-5.31;nan
63287;BME280;49410;55.708;37.522;2023-02-18T10:53:01;98528.72;;;-5.08;nan
63287;BME280;49410;55.708;37.522;2023-02-18T10:55:44;98517.47;;;-5.13;nan
63287;BME280;49410;55.708;37.522;2023-02-18T11:01:35;98533.94;;;-4.79;nan
63287;BME280;49410;55.708;37.522;2023-02-18T11:04:14;98504.81;;;-4.82;nan
63287;BME280;49410;55.708;37.522;2023-02-18T11:06:45;98517.13;;;-4.66;nan
63287;BME280;49410;55.708;37.522;2023-02-18T11:09:25;98506.78;;;-4.71;nan
63287;BME280;49410;55.708;37.522;2023-02-18T11:11:59;98509.28;;;-4.55;nan
63287;BME280;49410;55.708;37.522;2023-02-18T11:14:37;98507.25;;;-4.52;nan
63287;BME280;49410;55.708;37.522;2023-02-18T11:17:15;98506.81;;;-4.45;nan
63287;BME280;49410;55.708;37.522;2023-02-18T11:19:42;98498.56;;;-4.68;nan
63287;BME280;49410;55.708;37.522;2023-02-18T11:22:17;98508.38;;;-4.69;nan
63287;BME280;49410;55.708;37.522;2023-02-18T11:24:44;98478.34;;;-4.85;nan
63287;BME280;49410;55.708;37.522;2023-02-18T11:30:13;98464.28;;;-4.74;nan
63287;BME280;49410;55.708;37.522;2023-02-18T11:32:42;98475.56;;;-4.84;nan
63287;BME280;49410;55.708;37.522;2023-02-18T11:35:20;98469.16;;;-4.81;nan
63287;BME280;49410;55.708;37.522;2023-02-18T11:37:46;98477.91;;;-4.92;nan
63287;BME280;49410;55.708;37.522;2023-02-18T11:40:22;98468.28;;;-4.94;nan
63287;BME280;49410;55.708;37.522;2023-02-18T11:42:48;98468.91;;;-5.04;nan
63287;BME280;49410;55.708;37.522;2023-02-18T11:45:31;98463.78;;;-5.07;nan
63287;BME280;49410;55.708;37.522;2023-02-18T11:48:18;98453.34;;;-4.97;nan
63287;BME280;49410;55.708;37.522;2023-02-18T11:50:50;98456.88;;;-4.96;nan
63287;BME280;49410;55.708;37.522;2023-02-18T11:53:33;98451.69;;;-4.85;nan
63287;BME280;49410;55.708;37.522;2023-02-18T11:56:16;98421.94;;;-5.06;nan
63287;BME280;49410;55.708;37.522;2023-02-18T11:58:46;98434.28;;;-4.91;nan
63287;BME280;49410;55.708;37.522;2023-02-18T12:01:34;98431.03;;;-4.96;nan
63287;BME280;49410;55.708;37.522;2023-02-18T12:04:09;98394.84;;;-5.13;nan
63287;BME280;49410;55.708;37.522;2023-02-18T12:06:41;98416.22;;;-5.00;nan
63287;BME280;49410;55.708;37.522;2023-02-18T12:09:22;98420.59;;;-4.99;nan
63287;BME280;49410;55.708;37.522;2023-02-18T12:11:55;98421.88;;;-5.05;nan
63287;BME280;49410;55.708;37.522;2023-02-18T12:14:22;98407.16;;;-4.97;nan
63287;BME280;49410;55.708;37.522;2023-02-18T12:36:12;98392.38;;;-5.29;nan
63287;BME280;49410;55.708;37.522;2023-02-18T12:56:44;98382.50;;;-5.41;nan
63287;BME280;49410;55.708;37.522;2023-02-18T13:01:41;98373.78;;;-5.31;nan
63287;BME280;49410;55.708;37.522;2023-02-18T13:04:51;98374.41;;;-5.40;nan
63287;BME280;49410;55.708;37.522;2023-02-18T13:07:30;98363.44;;;-5.35;nan
63287;BME280;49410;55.708;37.522;2023-02-18T13:10:34;98368.38;;;-5.29;nan
63287;BME280;49410;55.708;37.522;2023-02-18T13:13:20;98357.13;;;-5.47;nan
63287;BME280;49410;55.708;37.522;2023-02-18T13:15:54;98365.16;;;-5.34;nan
63287;BME280;49410;55.708;37.522;2023-02-18T13:18:30;98354.66;;;-5.50;nan
63287;BME280;49410;55.708;37.522;2023-02-18T13:21:02;98345.50;;;-5.46;nan
63287;BME280;49410;55.708;37.522;2023-02-18T13:23:39;98349.63;;;-5.55;nan
63287;BME280;49410;55.708;37.522;2023-02-18T13:26:10;98337.44;;;-5.59;nan
63287;BME280;49410;55.708;37.522;2023-02-18T13:37:15;98351.19;;;-5.65;nan
63287;BME280;49410;55.708;37.522;2023-02-18T13:39:54;98341.59;;;-5.68;nan
63287;BME280;49410;55.708;37.522;2023-02-18T13:47:44;98312.25;;;-5.81;nan
63287;BME280;49410;55.708;37.522;2023-02-18T13:52:57;98325.56;;;-5.81;nan
63287;BME280;49410;55.708;37.522;2023-02-18T14:01:16;98313.78;;;-5.64;nan
63287;BME280;49410;55.708;37.522;2023-02-18T14:11:56;98304.38;;;-5.69;nan
63287;BME280;49410;55.708;37.522;2023-02-18T14:14:39;98309.19;;;-5.62;nan
63287;BME280;49410;55.708;37.522;2023-02-18T14:17:14;98309.00;;;-5.58;nan
63287;BME280;49410;55.708;37.522;2023-02-18T14:27:52;98279.56;;;-5.70;nan
63287;BME280;49410;55.708;37.522;2023-02-18T14:32:48;98275.44;;;-5.88;nan
63287;BME280;49410;55.708;37.522;2023-02-18T14:46:24;98274.66;;;-5.76;nan
63287;BME280;49410;55.708;37.522;2023-02-18T14:51:23;98276.09;;;-5.85;nan
63287;BME280;49410;55.708;37.522;2023-02-18T14:53:50;98259.13;;;-5.97;nan
63287;BME280;49410;55.708;37.522;2023-02-18T14:56:16;98260.97;;;-5.84;nan
63287;BME280;49410;55.708;37.522;2023-02-18T14:58:47;98242.63;;;-5.89;nan
63287;BME280;49410;55.708;37.522;2023-02-18T15:01:22;98264.94;;;-5.77;nan
63287;BME280;49410;55.708;37.522;2023-02-18T15:03:50;98259.28;;;-5.85;nan
63287;BME280;49410;55.708;37.522;2023-02-18T15:06:36;98268.53;;;-5.91;nan
63287;BME280;49410;55.708;37.522;2023-02-18T15:09:17;98265.94;;;-5.93;nan
63287;BME280;49410;55.708;37.522;2023-02-18T15:11:55;98241.13;;;-6.06;nan
63287;BME280;49410;55.708;37.522;2023-02-18T15:14:28;98249.31;;;-5.96;nan
63287;BME280;49410;55.708;37.522;2023-02-18T15:16:55;98237.41;;;-6.03;nan
63287;BME280;49410;55.708;37.522;2023-02-18T15:19:24;98237.84;;;-5.97;nan
63287;BME280;49410;55.708;37.522;2023-02-18T15:21:52;98234.75;;;-6.03;nan
63287;BME280;49410;55.708;37.522;2023-02-18T15:24:32;98231.97;;;-6.02;nan
63287;BME280;49410;55.708;37.522;2023-02-18T15:27:01;98233.34;;;-5.96;nan
63287;BME280;49410;55.708;37.522;2023-02-18T15:29:31;98235.41;;;-6.00;nan
63287;BME280;49410;55.708;37.522;2023-02-18T15:31:58;98227.81;;;-5.93;nan
63287;BME280;49410;55.708;37.522;2023-02-18T15:36:53;98220.63;;;-5.78;nan
63287;BME280;49410;55.708;37.522;2023-02-18T15:39:19;98197.28;;;-6.00;nan
63287;BME280;49410;55.708;37.522;2023-02-18T15:41:45;98199.00;;;-5.86;nan
63287;BME280;49410;55.708;37.522;2023-02-18T15:44:23;98211.75;;;-5.92;nan
63287;BME280;49410;55.708;37.522;2023-02-18T15:46:50;98186.06;;;-5.93;nan
63287;BME280;49410;55.708;37.522;2023-02-18T15:49:19;98213.88;;;-5.97;nan
63287;BME280;49410;55.708;37.522;2023-02-18T15:51:45;98199.50;;;-5.94;nan
63287;BME280;49410;55.708;37.522;2023-02-18T15:54:17;98174.66;;;-6.07;nan
63287;BME280;49410;55.708;37.522;2023-02-18T15:56:47;98200.97;;;-5.90;nan
63287;BME280;49410;55.708;37.522;2023-02-18T15:59:30;98193.88;;;-6.02;nan